Time;durP1;ratioP1;P1;durP2;ratioP2;P2;SDS_P1;SDS_P2;PMS_P1;PMS_P2;Temp;Humidity;BMP_temperature;BMP_pressure;BME280_temperature;BME280_humidity;BME280_pressure;Samples;Min_cycle;Max_cycle;Signal;HPM_P1;HPM_P2
2023/09/16 00:01:14;;;;;;;12.23;9.60;;;;;;;16.27;81.98;101168.34;3594049;39;20095;-66
2023/09/16 00:03:40;;;;;;;13.18;11.27;;;;;;;16.25;82.32;101154.91;3594395;39;20082;-66
2023/09/16 00:06:06;;;;;;;12.00;10.80;;;;;;;16.24;82.16;101164.03;3591286;39;20063;-67
2023/09/16 00:08:33;;;;;;;12.13;9.50;;;;;;;16.22;81.87;101160.59;3594520;39;20395;-66
2023/09/16 00:11:00;;;;;;;12.38;10.23;;;;;;;16.22;82.22;101161.44;3591595;39;20550;-66
2023/09/16 00:13:27;;;;;;;11.38;10.00;;;;;;;16.22;82.00;101160.59;3592741;39;20133;-66
2023/09/16 00:15:52;;;;;;;10.90;9.80;;;;;;;16.14;81.46;101154.91;3592840;39;20324;-66
2023/09/16 00:18:18;;;;;;;13.45;10.20;;;;;;;16.18;81.90;101169.97;3583224;39;20048;-66
2023/09/16 00:20:48;;;;;;;11.02;9.90;;;;;;;16.18;81.97;101176.25;3593073;39;20101;-67
2023/09/16 00:23:15;;;;;;;13.10;9.90;;;;;;;15.97;81.43;101151.69;3592425;39;20355;-66
2023/09/16 00:25:40;;;;;;;14.27;10.98;;;;;;;16.15;81.49;101186.47;3592496;39;20070;-66
2023/09/16 00:28:06;;;;;;;10.60;9.60;;;;;;;16.15;82.55;101179.19;3593562;39;20099;-67
2023/09/16 00:30:35;;;;;;;12.25;9.38;;;;;;;16.14;82.34;101179.31;3593311;39;20051;-67
2023/09/16 00:33:05;;;;;;;11.32;10.15;;;;;;;16.13;82.46;101183.00;3593228;39;20062;-66
2023/09/16 00:35:31;;;;;;;11.40;10.25;;;;;;;16.11;82.55;101174.13;3595524;39;20056;-68
2023/09/16 00:37:57;;;;;;;12.10;9.82;;;;;;;16.07;82.48;101170.81;3587644;39;20063;-66
2023/09/16 00:40:22;;;;;;;11.85;9.63;;;;;;;16.06;82.13;101168.22;3596593;39;20300;-66
2023/09/16 00:42:48;;;;;;;15.95;9.57;;;;;;;16.04;83.00;101168.34;3594526;39;20058;-66
2023/09/16 00:45:14;;;;;;;12.55;9.25;;;;;;;16.02;83.53;101171.19;3592526;39;20059;-66
2023/09/16 00:47:41;;;;;;;13.20;9.88;;;;;;;15.96;82.70;101154.53;3591693;39;20051;-65
2023/09/16 00:50:11;;;;;;;11.68;10.32;;;;;;;16.01;83.03;101169.44;3594031;39;20186;-66
2023/09/16 00:52:47;;;;;;;11.10;9.93;;;;;;;15.99;82.90;101155.16;3592222;39;20310;-64
2023/09/16 00:55:13;;;;;;;11.02;9.30;;;;;;;15.99;83.44;101152.44;3595385;39;20120;-66
2023/09/16 00:57:43;;;;;;;10.80;9.70;;;;;;;15.98;82.69;101153.44;3581803;39;20056;-66
2023/09/16 01:00:10;;;;;;;12.75;9.82;;;;;;;15.98;83.15;101148.00;3595923;39;20129;-66
2023/09/16 01:02:37;;;;;;;10.95;9.52;;;;;;;15.98;82.84;101147.13;3593273;39;20063;-65
2023/09/16 01:05:17;;;;;;;11.38;9.73;;;;;;;15.97;83.02;101146.25;3592781;39;20102;-65
2023/09/16 01:07:46;;;;;;;11.68;9.52;;;;;;;15.97;82.80;101140.84;3590969;39;20051;-66
2023/09/16 01:10:18;;;;;;;12.15;9.60;;;;;;;15.97;82.83;101140.84;3592945;39;20318;-66
2023/09/16 01:12:45;;;;;;;11.15;9.70;;;;;;;15.97;82.30;101138.13;3593815;39;20086;-65
2023/09/16 01:15:15;;;;;;;11.50;9.80;;;;;;;15.97;82.15;101138.13;3594189;39;20063;-65
2023/09/16 01:17:47;;;;;;;11.73;9.35;;;;;;;15.97;82.08;101143.56;3591573;39;20381;-66
2023/09/16 01:20:16;;;;;;;13.53;9.67;;;;;;;15.91;82.28;101135.03;3594272;39;20059;-66
2023/09/16 01:22:45;;;;;;;11.35;9.52;;;;;;;15.97;81.59;101145.41;3591767;39;20047;-66
2023/09/16 01:25:15;;;;;;;12.65;10.65;;;;;;;15.85;81.74;101121.97;3591957;39;20063;-67
2023/09/16 01:27:42;;;;;;;10.60;9.27;;;;;;;15.93;81.95;101144.78;3591069;39;20059;-67
2023/09/16 01:30:10;;;;;;;10.85;9.48;;;;;;;15.91;82.44;101135.03;3593662;39;20129;-65
2023/09/16 01:32:56;;;;;;;12.30;9.57;;;;;;;15.86;82.61;101138.13;3592474;39;20314;-66
2023/09/16 01:35:30;;;;;;;11.73;9.80;;;;;;;15.85;82.27;101140.94;3591779;39;20097;-66
2023/09/16 01:37:57;;;;;;;;;;;;;;;15.81;82.96;101145.75;3595612;39;20172;-66
2023/09/16 01:40:27;;;;;;;11.20;9.85;;;;;;;15.81;82.61;101142.19;3594397;39;19947;-66
2023/09/16 01:42:55;;;;;;;12.18;10.55;;;;;;;15.75;83.16;101128.13;3592437;39;20152;-65
2023/09/16 01:45:21;;;;;;;11.57;10.40;;;;;;;15.67;83.47;101121.59;3595003;39;20044;-65
2023/09/16 01:47:49;;;;;;;12.13;10.52;;;;;;;15.77;83.26;101136.16;3593847;39;20467;-66
2023/09/16 01:50:15;;;;;;;11.65;10.30;;;;;;;15.76;83.37;101126.28;3599513;39;20059;-65
2023/09/16 01:52:40;;;;;;;11.73;10.52;;;;;;;15.76;83.10;101128.97;3591237;39;20062;-65
2023/09/16 01:55:06;;;;;;;11.50;10.27;;;;;;;15.74;83.08;101128.25;3592076;39;20358;-67
2023/09/16 01:57:32;;;;;;;11.65;10.45;;;;;;;15.74;83.54;101120.97;3594111;39;20434;-65
2023/09/16 01:59:57;;;;;;;11.98;10.88;;;;;;;15.74;83.38;101126.41;3593427;39;20074;-67
2023/09/16 02:02:23;;;;;;;12.25;11.02;;;;;;;15.73;82.88;101129.22;3595252;39;20047;-68
2023/09/16 02:04:49;;;;;;;13.13;11.70;;;;;;;15.69;83.22;101125.03;3593292;39;20060;-67
2023/09/16 02:07:14;;;;;;;14.25;12.75;;;;;;;15.65;82.77;101120.81;3591687;39;20117;-67
2023/09/16 02:09:42;;;;;;;12.50;11.20;;;;;;;15.62;82.58;101118.34;3591076;39;20063;-66
2023/09/16 02:12:08;;;;;;;12.88;11.57;;;;;;;15.55;83.43;101116.09;3590810;39;20052;-67
2023/09/16 02:14:38;;;;;;;13.93;12.45;;;;;;;15.54;83.72;101130.66;3592627;39;20484;-65
2023/09/16 02:17:07;;;;;;;13.73;12.32;;;;;;;15.49;83.97;101126.56;3582794;39;20387;-67
2023/09/16 02:19:33;;;;;;;15.60;13.75;;;;;;;15.47;83.94;101131.22;3594241;39;20119;-66
2023/09/16 02:21:58;;;;;;;17.52;13.85;;;;;;;15.46;84.08;101124.94;3593127;39;20125;-65
2023/09/16 02:24:24;;;;;;;18.52;15.25;;;;;;;15.33;83.53;101113.34;3593581;39;20059;-66
2023/09/16 02:26:49;;;;;;;18.33;16.25;;;;;;;15.38;84.01;101135.53;3595691;39;20068;-66
2023/09/16 02:29:15;;;;;;;19.20;16.90;;;;;;;15.36;84.03;101123.94;3593811;39;20072;-66
2023/09/16 02:31:41;;;;;;;18.25;16.35;;;;;;;15.18;83.77;101100.97;3591893;39;20059;-68
2023/09/16 02:34:06;;;;;;;19.83;15.77;;;;;;;15.32;84.42;101127.88;3593262;39;20055;-67
2023/09/16 02:36:32;;;;;;;17.80;15.50;;;;;;;15.32;84.65;101117.06;3594279;39;20044;-66
2023/09/16 02:38:57;;;;;;;17.13;14.57;;;;;;;15.29;84.22;101111.88;3596782;39;20110;-66
2023/09/16 02:41:23;;;;;;;15.88;14.18;;;;;;;15.31;84.32;101123.41;3594727;39;20067;-66
2023/09/16 02:43:49;;;;;;;16.85;13.93;;;;;;;15.18;83.73;101106.41;3593866;39;20566;-66
2023/09/16 02:46:14;;;;;;;17.52;15.43;;;;;;;15.28;84.04;101126.38;3592855;39;20048;-65
2023/09/16 02:48:40;;;;;;;16.98;15.18;;;;;;;15.28;84.25;101131.78;3594846;39;20294;-66
2023/09/16 02:51:09;;;;;;;15.85;14.15;;;;;;;15.24;84.91;101124.88;3592584;39;20473;-67
2023/09/16 02:53:36;;;;;;;16.33;14.63;;;;;;;15.21;85.35;101125.97;3594243;39;20127;-66
2023/09/16 02:56:03;;;;;;;18.65;16.65;;;;;;;15.20;86.75;101124.25;3593697;39;20117;-66
2023/09/16 02:58:29;;;;;;;19.45;17.45;;;;;;;15.21;87.00;101120.56;3594002;39;20056;-66
2023/09/16 03:00:54;;;;;;;19.55;17.52;;;;;;;15.17;86.85;101107.38;3591394;39;20310;-66
2023/09/16 03:03:20;;;;;;;19.65;16.98;;;;;;;15.16;86.52;101111.06;3593797;39;20062;-65
2023/09/16 03:05:46;;;;;;;19.45;17.35;;;;;;;15.12;86.16;101109.56;3592468;39;20095;-67
2023/09/16 03:08:14;;;;;;;19.60;17.50;;;;;;;15.15;86.84;101112.03;3594348;39;20055;-66
2023/09/16 03:10:40;;;;;;;19.52;16.67;;;;;;;15.12;86.65;101101.44;3593048;39;20062;-66
2023/09/16 03:13:06;;;;;;;17.58;15.77;;;;;;;15.15;86.80;101103.91;3594075;39;20040;-66
2023/09/16 03:15:35;;;;;;;17.60;15.80;;;;;;;15.14;86.66;101113.91;3593062;39;20271;-65
2023/09/16 03:18:00;;;;;;;18.55;15.68;;;;;;;15.15;86.42;101106.63;3592315;39;20058;-66
2023/09/16 03:20:26;;;;;;;18.05;14.88;;;;;;;15.15;86.18;101109.34;3596422;39;20059;-67
2023/09/16 03:22:51;;;;;;;19.45;15.77;;;;;;;15.15;86.31;101115.63;3593884;39;20772;-68
2023/09/16 03:25:17;;;;;;;19.10;17.10;;;;;;;15.07;87.20;101085.56;3592939;39;20055;-67
2023/09/16 03:27:43;;;;;;;18.27;16.42;;;;;;;15.19;87.38;101100.88;3585573;39;20436;-66
2023/09/16 03:30:09;;;;;;;16.95;15.15;;;;;;;15.20;87.01;101101.75;3592396;39;20055;-67
2023/09/16 03:32:38;;;;;;;20.00;16.85;;;;;;;15.18;87.28;101103.69;3595371;39;20089;-66
2023/09/16 03:35:04;;;;;;;19.75;17.27;;;;;;;15.15;87.70;101109.34;3592442;39;20051;-66
2023/09/16 03:37:30;;;;;;;18.55;16.65;;;;;;;15.12;88.23;101110.44;3596042;39;20144;-67
2023/09/16 03:39:55;;;;;;;19.33;17.27;;;;;;;15.11;88.62;101102.44;3595332;39;20071;-66
2023/09/16 03:42:21;;;;;;;19.33;17.33;;;;;;;15.10;88.70;101101.59;3593395;39;20048;-66
2023/09/16 03:44:47;;;;;;;18.23;16.35;;;;;;;15.09;88.50;101097.13;3590401;39;20063;-66
2023/09/16 03:47:12;;;;;;;19.52;17.33;;;;;;;14.49;88.30;101004.19;3593326;39;20126;-66
2023/09/16 03:49:38;;;;;;;19.80;16.98;;;;;;;15.00;88.28;101089.69;3593033;39;20128;-66
2023/09/16 03:52:04;;;;;;;19.50;16.05;;;;;;;15.02;88.42;101091.31;3594060;39;20060;-66
2023/09/16 03:54:30;;;;;;;19.83;16.77;;;;;;;14.99;89.32;101083.44;3593661;39;20059;-66
2023/09/16 03:56:55;;;;;;;17.58;15.65;;;;;;;15.02;88.75;101082.34;3592306;39;20083;-66
2023/09/16 03:59:21;;;;;;;18.52;15.45;;;;;;;15.02;88.24;101085.03;3596931;39;20322;-66
2023/09/16 04:01:47;;;;;;;16.13;14.43;;;;;;;15.01;88.07;101078.78;3592785;39;20051;-67
2023/09/16 04:04:13;;;;;;;16.60;14.98;;;;;;;15.01;88.28;101084.19;3593743;39;20402;-67
2023/09/16 04:06:38;;;;;;;17.05;14.80;;;;;;;14.95;88.22;101076.53;3585051;39;20130;-67
2023/09/16 04:09:04;;;;;;;18.30;14.82;;;;;;;15.01;88.41;101089.59;3593178;39;20060;-68
2023/09/16 04:11:30;;;;;;;15.77;14.13;;;;;;;15.00;88.13;101090.59;3593178;39;20067;-66
2023/09/16 04:13:55;;;;;;;16.15;14.18;;;;;;;14.63;88.12;101024.84;3594527;39;20368;-66
2023/09/16 04:16:21;;;;;;;16.73;13.82;;;;;;;15.01;88.21;101088.75;3593189;39;20070;-67
2023/09/16 04:18:46;;;;;;;14.77;13.20;;;;;;;15.00;87.89;101089.69;3591990;39;20063;-67
2023/09/16 04:21:12;;;;;;;14.63;13.02;;;;;;;14.97;87.68;101090.81;3595937;39;20052;-66
2023/09/16 04:23:38;;;;;;;15.48;13.73;;;;;;;14.95;87.78;101083.78;3596182;39;20070;-66
2023/09/16 04:26:05;;;;;;;15.13;13.50;;;;;;;14.96;87.92;101086.38;3592391;39;20391;-66
2023/09/16 04:28:31;;;;;;;15.75;13.98;;;;;;;14.96;87.56;101082.81;3595734;39;20063;-66
2023/09/16 04:30:59;;;;;;;18.17;13.82;;;;;;;14.95;86.91;101089.22;3595369;39;20406;-67
2023/09/16 04:33:24;;;;;;;15.90;13.23;;;;;;;14.85;87.08;101073.66;3596432;39;20052;-68
2023/09/16 04:35:51;;;;;;;17.73;14.45;;;;;;;14.92;87.56;101086.72;3593978;39;20911;-65
2023/09/16 04:38:18;;;;;;;17.17;14.00;;;;;;;14.89;86.56;101078.84;3594782;39;20439;-66
2023/09/16 04:40:46;;;;;;;16.55;14.52;;;;;;;14.88;86.50;101085.25;3593339;39;20112;-66
2023/09/16 04:43:13;;;;;;;19.10;15.68;;;;;;;14.81;86.59;101079.41;3595290;39;20054;-65
2023/09/16 04:45:44;;;;;;;17.17;15.05;;;;;;;14.83;86.46;101081.03;3591957;39;20055;-68
2023/09/16 04:48:13;;;;;;;18.42;15.93;;;;;;;14.82;86.76;101083.88;3591698;39;20055;-66
2023/09/16 04:50:45;;;;;;;19.88;17.73;;;;;;;14.80;87.27;101078.53;3592411;39;20063;-67
2023/09/16 04:53:11;;;;;;;22.10;18.83;;;;;;;14.80;87.98;101078.53;3593398;39;20077;-67
2023/09/16 04:55:38;;;;;;;19.80;17.67;;;;;;;14.79;87.14;101078.69;3591546;39;20111;-66
2023/09/16 04:58:04;;;;;;;21.33;18.05;;;;;;;14.76;87.45;101077.06;3592964;39;20055;-68
2023/09/16 05:00:33;;;;;;;20.50;18.25;;;;;;;14.75;87.44;101082.59;3583864;39;20062;-67
2023/09/16 05:03:00;;;;;;;21.50;19.20;;;;;;;14.71;87.74;101084.66;3593973;39;20491;-67
2023/09/16 05:05:26;;;;;;;22.10;19.77;;;;;;;14.69;87.74;101088.47;3593254;39;20633;-67
2023/09/16 05:07:51;;;;;;;21.50;19.23;;;;;;;14.67;88.03;101082.31;3592987;39;20078;-68
2023/09/16 05:10:17;;;;;;;22.65;20.23;;;;;;;14.65;88.17;101084.25;3584164;39;20554;-67
2023/09/16 05:12:43;;;;;;;21.92;19.65;;;;;;;14.64;88.39;101075.28;3592847;39;20058;-68
2023/09/16 05:15:12;;;;;;;23.38;20.17;;;;;;;14.16;88.57;101005.75;3594783;39;20465;-68
2023/09/16 05:17:40;;;;;;;23.42;20.77;;;;;;;14.61;88.94;101081.78;3590613;39;20055;-67
2023/09/16 05:20:07;;;;;;;22.98;20.60;;;;;;;14.53;88.71;101073.38;3586199;39;20063;-68
2023/09/16 05:22:34;;;;;;;22.13;19.88;;;;;;;14.60;89.25;101080.06;3591111;39;20128;-67
2023/09/16 05:24:59;;;;;;;20.60;18.50;;;;;;;14.61;88.84;101079.06;3592328;39;20054;-67
2023/09/16 05:27:25;;;;;;;19.27;16.33;;;;;;;14.63;88.87;101087.09;3591948;39;20056;-67
2023/09/16 05:29:52;;;;;;;17.98;15.65;;;;;;;14.53;88.76;101065.28;3595095;39;21190;-68
2023/09/16 05:32:19;;;;;;;16.88;15.00;;;;;;;14.67;88.98;101082.31;3593730;39;20103;-67
2023/09/16 05:34:44;;;;;;;15.52;13.68;;;;;;;14.67;88.59;101082.31;3592438;39;20335;-67
2023/09/16 05:37:10;;;;;;;17.85;14.77;;;;;;;14.66;88.63;101080.59;3591539;39;20132;-68
2023/09/16 05:39:36;;;;;;;18.15;16.25;;;;;;;14.66;88.83;101086.84;3593734;39;20405;-67
2023/09/16 05:42:01;;;;;;;17.52;15.48;;;;;;;14.66;88.90;101083.28;3594290;39;20047;-66
2023/09/16 05:44:27;;;;;;;18.15;16.13;;;;;;;14.65;89.29;101079.69;3590895;39;20121;-67
2023/09/16 05:46:53;;;;;;;16.95;15.15;;;;;;;14.65;89.57;101078.84;3590166;39;20066;-68
2023/09/16 05:49:19;;;;;;;17.58;15.77;;;;;;;14.66;89.47;101077.88;3591127;39;20051;-67
2023/09/16 05:51:45;;;;;;;18.67;16.00;;;;;;;14.65;89.51;101078.84;3591515;39;20044;-67
2023/09/16 05:54:12;;;;;;;18.60;16.63;;;;;;;14.75;89.45;101090.72;3593226;39;20058;-67
2023/09/16 05:56:38;;;;;;;18.60;16.52;;;;;;;14.80;89.10;101083.97;3594130;39;20054;-67
2023/09/16 05:59:06;;;;;;;18.83;16.83;;;;;;;14.85;89.35;101080.94;3592202;39;20496;-68
2023/09/16 06:01:31;;;;;;;19.13;17.05;;;;;;;14.91;89.27;101090.44;3594596;39;20337;-68
2023/09/16 06:03:57;;;;;;;21.00;18.80;;;;;;;14.93;89.36;101078.47;3591467;39;20051;-67
2023/09/16 06:06:23;;;;;;;22.58;20.13;;;;;;;15.03;88.95;101090.34;3591631;39;20055;-67
2023/09/16 06:08:48;;;;;;;21.45;19.23;;;;;;;15.08;89.46;101085.44;3597515;39;20417;-67
2023/09/16 06:11:14;;;;;;;23.35;20.10;;;;;;;14.94;89.30;101057.69;3596712;39;20051;-67
2023/09/16 06:13:40;;;;;;;22.10;19.73;;;;;;;15.13;88.88;101086.91;3595145;39;20044;-67
2023/09/16 06:16:07;;;;;;;24.45;22.02;;;;;;;15.24;88.91;101093.25;3595398;39;20272;-68
2023/09/16 06:18:32;;;;;;;24.20;21.70;;;;;;;15.31;88.20;101105.31;3599028;39;20063;-67
2023/09/16 06:20:58;;;;;;;23.33;21.02;;;;;;;14.95;88.97;101026.94;3595138;39;20138;-67
2023/09/16 06:23:25;;;;;;;23.13;20.73;;;;;;;15.45;89.00;101098.84;3596672;39;20390;-68
2023/09/16 06:25:51;;;;;;;23.17;20.80;;;;;;;15.53;88.82;101109.06;3594902;39;20063;-67
2023/09/16 06:28:17;;;;;;;24.08;21.67;;;;;;;15.61;89.10;101105.78;3596004;39;20504;-66
2023/09/16 06:30:42;;;;;;;23.67;21.27;;;;;;;15.70;89.11;101102.38;3594149;39;20468;-68
2023/09/16 06:33:08;;;;;;;24.48;22.08;;;;;;;15.78;89.08;101098.06;3595255;39;20058;-67
2023/09/16 06:35:34;;;;;;;24.70;22.20;;;;;;;15.86;88.92;101097.47;3598035;39;20308;-68
2023/09/16 06:37:59;;;;;;;23.58;21.17;;;;;;;15.93;88.98;101100.56;3598907;39;20056;-66
2023/09/16 06:40:25;;;;;;;24.00;21.70;;;;;;;16.01;88.76;101109.78;3599410;39;20055;-66
2023/09/16 06:42:50;;;;;;;24.55;22.13;;;;;;;15.98;89.40;101082.94;3594506;39;20338;-68
2023/09/16 06:45:16;;;;;;;24.48;21.85;;;;;;;16.18;89.17;101099.44;3595228;39;20044;-66
2023/09/16 06:47:42;;;;;;;21.25;19.02;;;;;;;16.25;88.01;101100.66;3596015;39;20055;-67
2023/09/16 06:50:08;;;;;;;19.95;17.98;;;;;;;16.33;88.21;101105.44;3598032;39;20054;-67
2023/09/16 06:52:34;;;;;;;18.90;16.90;;;;;;;16.45;87.62;101104.44;3594986;39;20086;-67
2023/09/16 06:55:00;;;;;;;19.38;17.58;;;;;;;16.57;88.04;101108.00;3596080;39;20051;-68
2023/09/16 06:57:26;;;;;;;18.58;16.60;;;;;;;16.67;87.06;101095.41;3594297;39;20055;-68
2023/09/16 06:59:51;;;;;;;18.35;15.93;;;;;;;16.81;87.62;101102.41;3594056;39;20151;-68
2023/09/16 07:02:18;;;;;;;15.85;14.15;;;;;;;16.80;87.37;101070.81;3595417;39;20071;-68
2023/09/16 07:04:45;;;;;;;15.75;14.07;;;;;;;17.13;86.50;101099.72;3593975;39;20555;-67
2023/09/16 07:07:12;;;;;;;14.65;12.77;;;;;;;17.30;85.18;101098.25;3595315;39;20048;-66
2023/09/16 07:09:39;;;;;;;13.70;11.45;;;;;;;17.48;83.71;101102.13;3595383;39;20055;-67
2023/09/16 07:12:07;;;;;;;12.73;11.52;;;;;;;17.72;83.60;101101.81;3597480;39;20124;-68
2023/09/16 07:14:36;;;;;;;12.60;11.07;;;;;;;17.93;81.26;101098.25;3597872;39;20059;-67
2023/09/16 07:17:02;;;;;;;12.60;11.35;;;;;;;18.11;81.44;101091.19;3598033;39;20057;-68
2023/09/16 07:19:27;;;;;;;12.23;10.93;;;;;;;18.33;80.12;101093.69;3594226;39;20060;-66
2023/09/16 07:21:53;;;;;;;13.18;10.63;;;;;;;18.58;79.85;101096.03;3594657;39;20098;-68
2023/09/16 07:24:19;;;;;;;11.30;10.10;;;;;;;18.63;78.42;101066.53;3593278;39;20067;-66
2023/09/16 07:26:44;;;;;;;10.05;9.05;;;;;;;18.99;76.33;101100.41;3593724;39;20268;-68
2023/09/16 07:29:10;;;;;;;10.68;9.43;;;;;;;19.18;75.37;101097.69;3595559;39;20290;-67
2023/09/16 07:31:36;;;;;;;9.93;8.93;;;;;;;19.29;75.54;101077.63;3593242;39;20499;-68
2023/09/16 07:34:03;;;;;;;11.43;9.55;;;;;;;19.60;74.03;101102.81;3594358;39;20052;-67
2023/09/16 07:36:28;;;;;;;10.27;8.80;;;;;;;19.81;72.51;101107.25;3586513;40;20083;-67
2023/09/16 07:38:54;;;;;;;9.90;8.90;;;;;;;19.96;72.52;101111.22;3597051;39;20275;-66
2023/09/16 07:41:23;;;;;;;10.68;8.70;;;;;;;20.07;71.09;101118.34;3594576;39;20067;-68
2023/09/16 07:43:49;;;;;;;12.55;8.70;;;;;;;20.16;70.29;101112.00;3594787;39;20468;-67
2023/09/16 07:46:14;;;;;;;10.20;9.10;;;;;;;20.34;69.41;101109.34;3593696;39;20047;-69
2023/09/16 07:48:40;;;;;;;11.80;8.85;;;;;;;20.45;70.87;101102.81;3595822;39;20324;-67
2023/09/16 07:51:06;;;;;;;10.45;8.98;;;;;;;20.75;70.28;101115.31;3594108;39;20326;-67
2023/09/16 07:53:31;;;;;;;11.70;9.18;;;;;;;20.93;68.07;101112.59;3592971;39;20062;-67
2023/09/16 07:55:57;;;;;;;9.68;8.65;;;;;;;21.10;68.27;101118.06;3594992;39;20066;-68
2023/09/16 07:58:22;;;;;;;9.80;8.40;;;;;;;21.23;68.22;101114.09;3594801;39;20056;-68
2023/09/16 08:00:49;;;;;;;9.20;8.23;;;;;;;21.19;67.31;101085.34;3594272;39;20055;-67
2023/09/16 08:03:15;;;;;;;10.30;8.55;;;;;;;21.51;66.96;101112.97;3594840;39;20050;-67
2023/09/16 08:05:40;;;;;;;10.45;8.20;;;;;;;21.71;66.03;101118.25;3593694;39;20283;-68
2023/09/16 08:08:06;;;;;;;10.68;8.00;;;;;;;21.73;64.77;101118.97;3595466;39;20051;-69
2023/09/16 08:10:32;;;;;;;13.23;8.65;;;;;;;21.73;65.98;101114.34;3594875;39;20066;-68
2023/09/16 08:12:57;;;;;;;10.40;7.60;;;;;;;21.90;65.08;101128.97;3594597;39;20067;-67
2023/09/16 08:15:23;;;;;;;9.02;7.60;;;;;;;22.00;63.44;101132.47;3595751;39;20052;-67
2023/09/16 08:17:49;;;;;;;8.88;7.50;;;;;;;22.04;62.69;101127.53;3594504;39;20083;-67
2023/09/16 08:20:18;;;;;;;9.20;7.57;;;;;;;22.06;63.10;101125.50;3594312;39;20263;-66
2023/09/16 08:22:44;;;;;;;8.43;7.53;;;;;;;22.15;61.85;101134.63;3594571;39;20052;-67
2023/09/16 08:25:09;;;;;;;8.27;7.47;;;;;;;22.21;62.79;101139.47;3595743;39;20102;-68
2023/09/16 08:27:35;;;;;;;8.13;7.00;;;;;;;22.41;64.68;101129.97;3593275;39;20044;-66
2023/09/16 08:30:01;;;;;;;9.73;7.82;;;;;;;22.62;62.39;101142.41;3592599;39;20060;-67
2023/09/16 08:32:28;;;;;;;8.63;7.35;;;;;;;22.80;61.97;101129.41;3597228;39;20063;-67
2023/09/16 08:34:55;;;;;;;8.60;7.50;;;;;;;23.03;62.23;101137.91;3593621;39;20048;-67
2023/09/16 08:37:21;;;;;;;9.18;8.00;;;;;;;23.09;61.09;101145.47;3591534;39;20140;-68
2023/09/16 08:39:46;;;;;;;9.93;7.22;;;;;;;23.08;59.46;101149.22;3594097;39;20087;-67
2023/09/16 08:42:29;;;;;;;7.68;6.97;;;;;;;23.16;58.37;101148.38;3592854;39;20051;-67
2023/09/16 08:45:03;;;;;;;9.85;6.90;;;;;;;23.20;59.67;101141.53;3594227;39;20389;-67
2023/09/16 08:47:43;;;;;;;9.88;7.95;;;;;;;22.78;58.26;101070.31;3592539;39;20121;-66
2023/09/16 08:50:11;;;;;;;9.65;7.40;;;;;;;23.30;59.19;101153.19;3594462;39;20419;-68
2023/09/16 08:52:39;;;;;;;8.82;7.68;;;;;;;23.44;58.41;101162.66;3593800;39;20082;-68
2023/09/16 08:55:15;;;;;;;8.10;7.40;;;;;;;23.57;58.19;101145.69;3592907;39;20480;-67
2023/09/16 08:58:08;;;;;;;10.00;7.75;;;;;;;23.51;56.03;101166.41;3592841;39;20358;-68
2023/09/16 09:00:37;;;;;;;8.80;7.90;;;;;;;23.48;57.07;101158.53;3592748;39;20099;-68
2023/09/16 09:03:04;;;;;;;7.78;7.07;;;;;;;23.66;57.85;101158.38;3593877;39;20110;-68
2023/09/16 09:05:34;;;;;;;8.80;7.82;;;;;;;23.81;57.00;101162.13;3592786;39;20067;-67
2023/09/16 09:08:00;;;;;;;9.20;7.30;;;;;;;24.00;57.59;101149.06;3592671;39;20056;-68
2023/09/16 09:10:26;;;;;;;9.05;7.35;;;;;;;24.23;57.14;101143.69;3593983;39;20133;-67
2023/09/16 09:12:52;;;;;;;8.52;7.55;;;;;;;24.52;57.98;101148.63;3594884;39;20124;-67
2023/09/16 09:15:19;;;;;;;8.40;6.68;;;;;;;24.75;57.60;101155.03;3593053;39;20400;-69
2023/09/16 09:17:54;;;;;;;8.40;7.47;;;;;;;24.88;57.04;101154.44;3592387;39;20098;-67
2023/09/16 09:20:26;;;;;;;10.43;7.78;;;;;;;24.82;57.05;101143.31;3593641;39;20119;-66
2023/09/16 09:22:52;;;;;;;8.88;7.28;;;;;;;25.11;57.05;101168.22;3597194;39;20055;-69
2023/09/16 09:25:24;;;;;;;9.55;7.85;;;;;;;25.34;55.62;101164.66;3592798;39;20131;-68
2023/09/16 09:27:52;;;;;;;8.85;7.78;;;;;;;25.39;55.27;101163.06;3593531;39;20063;-67
2023/09/16 09:30:24;;;;;;;10.55;8.15;;;;;;;25.49;56.48;101168.31;3592521;39;20059;-68
2023/09/16 09:32:50;;;;;;;9.20;8.35;;;;;;;25.62;54.59;101171.31;3592851;39;20063;-68
2023/09/16 09:35:16;;;;;;;9.48;8.48;;;;;;;25.76;54.47;101163.28;3594105;39;20548;-67
2023/09/16 09:37:42;;;;;;;9.00;7.72;;;;;;;25.97;53.88;101166.19;3593090;39;20054;-67
2023/09/16 09:40:13;;;;;;;8.80;7.90;;;;;;;26.26;54.00;101164.50;3591971;39;20628;-67
2023/09/16 09:42:48;;;;;;;8.57;7.70;;;;;;;26.32;51.93;101169.28;3592898;39;20062;-67
2023/09/16 09:45:16;;;;;;;8.60;7.40;;;;;;;26.33;53.26;101182.88;3594885;39;20051;-67
2023/09/16 09:47:44;;;;;;;8.27;7.35;;;;;;;26.30;52.09;101157.59;3594630;39;20052;-68
2023/09/16 09:50:15;;;;;;;8.35;6.70;;;;;;;26.47;51.85;101177.53;3591061;39;20059;-67
2023/09/16 09:52:52;;;;;;;8.10;7.30;;;;;;;26.49;52.04;101173.59;3594372;39;20082;-66
2023/09/16 09:55:20;;;;;;;8.27;7.32;;;;;;;26.58;51.27;101169.69;3591893;39;20446;-68
2023/09/16 09:57:48;;;;;;;7.03;6.32;;;;;;;26.78;51.03;101175.47;3595987;39;20058;-67
2023/09/16 10:00:18;;;;;;;9.27;6.30;;;;;;;27.00;49.99;101173.59;3595120;39;20402;-67
2023/09/16 10:02:45;;;;;;;6.70;6.00;;;;;;;27.30;48.65;101173.53;3595071;39;20091;-67
2023/09/16 10:05:21;;;;;;;6.75;6.15;;;;;;;27.48;50.22;101165.66;3594317;39;20047;-66
2023/09/16 10:07:50;;;;;;;7.80;6.22;;;;;;;27.62;47.57;101171.28;3591763;39;20059;-68
2023/09/16 10:10:25;;;;;;;7.20;6.50;;;;;;;27.80;48.79;101162.56;3590071;39;20072;-67
2023/09/16 10:12:54;;;;;;;8.40;6.00;;;;;;;27.93;47.95;101169.03;3593299;39;20368;-66
2023/09/16 10:15:33;;;;;;;6.97;5.70;;;;;;;28.04;46.69;101169.53;3590920;39;20083;-68
2023/09/16 10:17:59;;;;;;;6.13;5.53;;;;;;;28.19;47.29;101170.28;3590768;39;20056;-66
2023/09/16 10:20:29;;;;;;;5.63;5.10;;;;;;;28.25;46.32;101172.25;3593240;39;20052;-66
2023/09/16 10:22:57;;;;;;;5.75;5.15;;;;;;;28.40;45.98;101158.34;3591818;39;20044;-67
2023/09/16 10:25:23;;;;;;;5.93;5.30;;;;;;;28.61;46.68;101165.69;3592934;39;20064;-67
2023/09/16 10:28:02;;;;;;;5.90;5.30;;;;;;;28.58;45.08;101163.34;3591657;39;20072;-66
2023/09/16 10:30:33;;;;;;;5.43;4.93;;;;;;;28.67;45.35;101167.59;3591814;39;20060;-67
2023/09/16 10:33:01;;;;;;;5.88;5.28;;;;;;;28.65;45.11;101158.69;3592833;39;20387;-67
2023/09/16 10:35:31;;;;;;;6.55;5.47;;;;;;;28.76;44.47;101151.69;3596338;39;20059;-67
2023/09/16 10:38:02;;;;;;;7.95;6.03;;;;;;;28.86;43.92;101158.56;3591294;39;20121;-66
2023/09/16 10:40:30;;;;;;;7.00;6.10;;;;;;;28.77;45.05;101165.34;3591707;39;20078;-68
2023/09/16 10:43:00;;;;;;;7.03;5.70;;;;;;;28.69;45.57;101158.03;3590993;39;20060;-69
2023/09/16 10:45:26;;;;;;;7.82;5.68;;;;;;;28.82;46.53;101151.72;3591900;39;20056;-67
2023/09/16 10:47:54;;;;;;;6.57;5.47;;;;;;;28.92;46.24;101146.66;3591568;39;20055;-66
2023/09/16 10:50:30;;;;;;;5.75;4.70;;;;;;;29.01;45.75;101146.47;3592218;39;20395;-67
2023/09/16 10:53:15;;;;;;;6.75;6.03;;;;;;;28.86;43.79;101147.50;3591450;39;20302;-67
2023/09/16 10:56:16;;;;;;;5.93;5.35;;;;;;;28.63;44.52;101136.72;3594126;39;20414;-67
2023/09/16 10:58:47;;;;;;;6.60;5.90;;;;;;;28.69;43.98;101140.59;3597181;39;20039;-68
2023/09/16 11:01:31;;;;;;;6.03;5.43;;;;;;;28.68;44.13;101131.44;3593642;39;20063;-67
2023/09/16 11:04:09;;;;;;;7.15;5.97;;;;;;;28.82;43.58;101140.63;3593289;39;20475;-68
2023/09/16 11:06:35;;;;;;;14.10;6.18;;;;;;;28.81;44.75;101115.97;3594587;39;20064;-66
2023/09/16 11:09:02;;;;;;;5.97;5.18;;;;;;;29.25;44.38;101134.84;3594311;39;20108;-67
2023/09/16 11:11:29;;;;;;;5.45;4.95;;;;;;;29.46;43.05;101135.69;3595211;39;20386;-66
2023/09/16 11:13:55;;;;;;;6.43;5.82;;;;;;;29.58;43.12;101142.31;3593360;39;20071;-66
2023/09/16 11:16:21;;;;;;;5.60;5.10;;;;;;;29.73;42.67;101120.81;3593251;39;20416;-67